Time;durP1;ratioP1;P1;durP2;ratioP2;P2;SDS_P1;SDS_P2;PMS_P1;PMS_P2;Temp;Humidity;BMP_temperature;BMP_pressure;BME280_temperature;BME280_humidity;BME280_pressure;Samples;Min_cycle;Max_cycle;Signal;HPM_P1;HPM_P2
2023/07/19 00:00:38;;;;;;;;;;;30.60;54.20;;;;;;5148956;27;44218;-90
2023/07/19 00:03:04;;;;;;;;;;;30.60;54.20;;;;;;5149632;27;42911;-86
2023/07/19 00:05:29;;;;;;;;;;;30.60;54.20;;;;;;5148762;27;43030;-86
2023/07/19 00:07:55;;;;;;;;;;;30.60;54.20;;;;;;5123585;27;43087;-89
2023/07/19 00:10:21;;;;;;;;;;;30.60;54.20;;;;;;5144631;27;43267;-85
2023/07/19 00:12:46;;;;;;;;;;;30.60;54.20;;;;;;5144474;27;43155;-84
2023/07/19 00:15:12;;;;;;;;;;;30.60;54.90;;;;;;5136135;27;43414;-82
2023/07/19 00:17:37;;;;;;;;;;;30.60;54.80;;;;;;5144541;27;42906;-84
2023/07/19 00:20:04;;;;;;;;;;;30.60;54.20;;;;;;5148414;27;42890;-88
2023/07/19 00:22:30;;;;;;;;;;;30.60;54.20;;;;;;5148515;27;42977;-84
2023/07/19 00:24:56;;;;;;;;;;;30.60;54.80;;;;;;5148502;27;43002;-87
2023/07/19 00:27:22;;;;;;;;;;;30.70;54.30;;;;;;5129570;27;42901;-88
2023/07/19 00:29:47;;;;;;;;;;;30.50;54.20;;;;;;5149077;27;43593;-84
2023/07/19 00:32:13;;;;;;;;;;;30.50;54.20;;;;;;5149280;27;43019;-89
2023/07/19 00:34:38;;;;;;;;;;;30.60;54.70;;;;;;5150184;27;42946;-90
2023/07/19 00:37:05;;;;;;;;;;;30.60;54.70;;;;;;5130187;27;42999;-82
2023/07/19 00:39:31;;;;;;;;;;;30.60;54.80;;;;;;5130617;27;43948;-90
2023/07/19 00:41:57;;;;;;;;;;;30.50;54.00;;;;;;5148888;27;43128;-90
2023/07/19 00:44:22;;;;;;;;;;;30.50;54.20;;;;;;5130960;27;43450;-90
2023/07/19 00:46:48;;;;;;;;;;;30.50;54.20;;;;;;5149346;27;42830;-89
2023/07/19 00:49:13;;;;;;;;;;;30.60;54.30;;;;;;5149509;27;44020;-89
2023/07/19 00:51:40;;;;;;;;;;;30.50;54.80;;;;;;5147588;27;42934;-89
2023/07/19 00:54:07;;;;;;;;;;;30.50;54.20;;;;;;5148955;27;42924;-90
2023/07/19 00:56:33;;;;;;;;;;;30.50;54.10;;;;;;5149196;27;42931;-89
2023/07/19 00:58:59;;;;;;;;;;;30.70;54.30;;;;;;5148641;27;42961;-90
2023/07/19 01:01:25;;;;;;;;;;;30.50;54.70;;;;;;5147978;27;43543;-90
2023/07/19 01:03:51;;;;;;;;;;;30.50;54.50;;;;;;5148342;27;43035;-83
2023/07/19 01:06:18;;;;;;;;;;;30.50;54.00;;;;;;5148307;27;42951;-89
2023/07/19 01:08:43;;;;;;;;;;;30.50;54.70;;;;;;5149184;27;43575;-88
2023/07/19 01:11:09;;;;;;;;;;;30.50;54.50;;;;;;5148598;27;43038;-90
2023/07/19 01:13:34;;;;;;;;;;;30.50;53.70;;;;;;5148158;27;43592;-89
2023/07/19 01:16:00;;;;;;;;;;;30.60;54.70;;;;;;5148162;27;42920;-89
2023/07/19 01:18:25;;;;;;;;;;;30.50;54.10;;;;;;5147874;27;43502;-89
2023/07/19 01:20:51;;;;;;;;;;;30.50;54.20;;;;;;5148211;27;42922;-88
2023/07/19 01:23:16;;;;;;;;;;;30.50;54.20;;;;;;5147235;27;43807;-89
2023/07/19 01:25:42;;;;;;;;;;;30.50;54.70;;;;;;5147821;27;42902;-82
2023/07/19 01:28:08;;;;;;;;;;;30.50;54.70;;;;;;5148024;27;42957;-88
2023/07/19 01:30:33;;;;;;;;;;;30.50;54.70;;;;;;5148697;27;42856;-89
2023/07/19 01:32:59;;;;;;;;;;;30.50;54.20;;;;;;5148012;27;43675;-90
2023/07/19 01:35:25;;;;;;;;;;;30.50;54.20;;;;;;5147105;27;43056;-89
2023/07/19 01:37:50;;;;;;;;;;;30.50;54.80;;;;;;5148206;27;43671;-88
2023/07/19 01:40:16;;;;;;;;;;;30.50;54.80;;;;;;5148402;27;42944;-88
2023/07/19 01:42:41;;;;;;;;;;;30.40;54.00;;;;;;5147228;27;43393;-89
2023/07/19 01:45:07;;;;;;;;;;;30.50;54.20;;;;;;5146638;27;42963;-88
2023/07/19 01:47:33;;;;;;;;;;;29.90;54.40;;;;;;5117855;27;44511;-89
2023/07/19 01:49:59;;;;;;;;;;;30.40;54.10;;;;;;5131737;27;42840;-90
2023/07/19 01:52:25;;;;;;;;;;;30.40;54.10;;;;;;5127321;27;43341;-89
2023/07/19 01:54:51;;;;;;;;;;;30.40;54.10;;;;;;5127084;27;43255;-88
2023/07/19 01:57:16;;;;;;;;;;;30.40;54.10;;;;;;5127232;27;42924;-90
2023/07/19 01:59:42;;;;;;;;;;;30.40;54.10;;;;;;5127054;27;42936;-89
2023/07/19 02:02:07;;;;;;;;;;;30.40;54.10;;;;;;5126239;27;43709;-89
2023/07/19 02:04:33;;;;;;;;;;;30.40;54.10;;;;;;5126958;27;42913;-84
2023/07/19 02:06:58;;;;;;;;;;;30.40;54.10;;;;;;5126868;27;42842;-82
2023/07/19 02:09:24;;;;;;;;;;;30.40;54.20;;;;;;5126483;27;43004;-89
2023/07/19 02:11:49;;;;;;;;;;;30.40;54.20;;;;;;5126472;27;43503;-89
2023/07/19 02:14:15;;;;;;;;;;;30.40;54.70;;;;;;5126871;27;42853;-89
2023/07/19 02:16:40;;;;;;;;;;;30.40;54.20;;;;;;5127360;27;43075;-82
2023/07/19 02:19:07;;;;;;;;;;;30.40;54.70;;;;;;5126977;27;42865;-82
2023/07/19 02:21:33;;;;;;;;;;;30.40;54.60;;;;;;5125657;27;43538;-90
2023/07/19 02:23:58;;;;;;;;;;;30.40;54.10;;;;;;5126997;27;43188;-89
2023/07/19 02:26:24;;;;;;;;;;;30.40;54.10;;;;;;5126549;27;42850;-89
2023/07/19 02:28:50;;;;;;;;;;;30.40;54.10;;;;;;5127028;27;43010;-89
2023/07/19 02:31:15;;;;;;;;;;;30.40;54.80;;;;;;5127107;27;43597;-82
2023/07/19 02:33:41;;;;;;;;;;;30.40;54.60;;;;;;5126523;27;42773;-89
2023/07/19 02:36:06;;;;;;;;;;;30.40;54.10;;;;;;5127041;27;43909;-89
2023/07/19 02:38:32;;;;;;;;;;;30.40;54.00;;;;;;5126281;27;42798;-88
2023/07/19 02:40:58;;;;;;;;;;;30.40;54.80;;;;;;5125997;27;43023;-89
2023/07/19 02:43:24;;;;;;;;;;;30.30;54.00;;;;;;5126095;27;42973;-87
2023/07/19 02:45:51;;;;;;;;;;;30.30;54.10;;;;;;5126037;27;42768;-88
2023/07/19 02:48:16;;;;;;;;;;;30.40;54.10;;;;;;5128924;27;43012;-89
2023/07/19 02:50:46;;;;;;;;;;;30.30;54.00;;;;;;5129682;27;43454;-89
2023/07/19 02:53:11;;;;;;;;;;;30.40;54.00;;;;;;5129958;27;43111;-82
2023/07/19 02:55:37;;;;;;;;;;;30.30;54.70;;;;;;5129527;27;43508;-89
2023/07/19 02:58:02;;;;;;;;;;;30.30;54.00;;;;;;5129972;27;43042;-82
2023/07/19 03:00:28;;;;;;;;;;;30.30;54.10;;;;;;5130273;27;42810;-90
2023/07/19 03:02:54;;;;;;;;;;;30.30;54.10;;;;;;5130093;27;42999;-88
2023/07/19 03:05:20;;;;;;;;;;;30.30;54.10;;;;;;5130171;27;43137;-89
2023/07/19 03:07:45;;;;;;;;;;;30.40;54.00;;;;;;5129896;27;43012;-88
2023/07/19 03:10:11;;;;;;;;;;;30.30;54.10;;;;;;5129468;27;43359;-86
2023/07/19 03:12:36;;;;;;;;;;;30.30;54.00;;;;;;5129938;27;42947;-83
2023/07/19 03:15:02;;;;;;;;;;;30.30;54.70;;;;;;5129860;27;42899;-90
2023/07/19 03:17:28;;;;;;;;;;;30.30;54.00;;;;;;5129633;27;42950;-82
2023/07/19 03:19:53;;;;;;;;;;;30.30;54.10;;;;;;5110576;27;44099;-87
2023/07/19 03:22:18;;;;;;;;;;;30.30;54.00;;;;;;5129444;27;42900;-90
2023/07/19 03:24:44;;;;;;;;;;;30.30;54.00;;;;;;5129414;27;43449;-88
2023/07/19 03:27:09;;;;;;;;;;;30.30;54.00;;;;;;5129254;27;42870;-88
2023/07/19 03:29:36;;;;;;;;;;;30.30;54.10;;;;;;5128895;27;42960;-89
2023/07/19 03:32:02;;;;;;;;;;;30.30;54.10;;;;;;5129322;27;42932;-89
2023/07/19 03:34:27;;;;;;;;;;;30.30;54.60;;;;;;5128747;27;43228;-82
2023/07/19 03:36:53;;;;;;;;;;;30.30;54.10;;;;;;5128976;27;43011;-89
2023/07/19 03:39:18;;;;;;;;;;;30.30;54.20;;;;;;5129097;27;43060;-89
2023/07/19 03:41:43;;;;;;;;;;;30.30;54.10;;;;;;5128939;27;42938;-88
2023/07/19 03:44:09;;;;;;;;;;;30.30;54.00;;;;;;5128869;27;43633;-90
2023/07/19 03:46:35;;;;;;;;;;;30.20;54.10;;;;;;5128734;27;42962;-90
2023/07/19 03:49:01;;;;;;;;;;;30.20;54.70;;;;;;5128979;27;43483;-90
2023/07/19 03:51:26;;;;;;;;;;;30.20;54.00;;;;;;5129258;27;42917;-89
2023/07/19 03:53:52;;;;;;;;;;;30.20;53.90;;;;;;5128662;27;43002;-89
2023/07/19 03:56:18;;;;;;;;;;;30.20;54.60;;;;;;5140370;27;43009;-84
2023/07/19 03:58:48;;;;;;;;;;;30.20;54.70;;;;;;5135125;27;43503;-89
2023/07/19 04:01:14;;;;;;;;;;;30.20;54.80;;;;;;5134919;27;42911;-88
2023/07/19 04:03:40;;;;;;;;;;;30.20;54.20;;;;;;5140973;27;43470;-83
2023/07/19 04:06:06;;;;;;;;;;;30.20;53.90;;;;;;5141425;27;43321;-88
2023/07/19 04:08:33;;;;;;;;;;;30.20;53.90;;;;;;5143993;27;43406;-82
2023/07/19 04:10:59;;;;;;;;;;;30.20;54.50;;;;;;5147735;27;43144;-89
2023/07/19 04:13:26;;;;;;;;;;;30.20;54.50;;;;;;5145569;27;43357;-88
2023/07/19 04:15:51;;;;;;;;;;;30.20;54.60;;;;;;5140611;27;42987;-88
2023/07/19 04:18:17;;;;;;;;;;;32.90;55.80;;;;;;5146754;27;42909;-89
2023/07/19 04:20:43;;;;;;;;;;;30.20;53.90;;;;;;5131972;27;42875;-85
2023/07/19 04:23:08;;;;;;;;;;;30.20;54.60;;;;;;5140805;27;43506;-89
2023/07/19 04:25:34;;;;;;;;;;;30.10;54.00;;;;;;5137760;27;44189;-87
2023/07/19 04:27:59;;;;;;;;;;;30.20;54.20;;;;;;5144811;27;44477;-81
2023/07/19 04:30:25;;;;;;;;;;;30.20;54.70;;;;;;5147552;27;43186;-88
2023/07/19 04:32:54;;;;;;;;;;;30.10;54.10;;;;;;5142686;27;43052;-82
2023/07/19 04:35:23;;;;;;;;;;;29.70;53.80;;;;;;5139803;27;42943;-86
2023/07/19 04:37:49;;;;;;;;;;;30.20;54.20;;;;;;5141974;27;44795;-88
2023/07/19 04:40:16;;;;;;;;;;;30.20;54.10;;;;;;5147757;27;43045;-90
2023/07/19 04:42:41;;;;;;;;;;;30.20;54.80;;;;;;5147417;27;43685;-89
2023/07/19 04:45:07;;;;;;;;;;;30.10;54.30;;;;;;5147947;27;43245;-90
2023/07/19 04:47:33;;;;;;;;;;;30.10;54.10;;;;;;5143616;27;43021;-89
2023/07/19 04:49:58;;;;;;;;;;;30.10;54.20;;;;;;5147436;27;43070;-89
2023/07/19 04:52:24;;;;;;;;;;;30.10;54.20;;;;;;5143162;27;43003;-88
2023/07/19 04:54:49;;;;;;;;;;;30.10;54.20;;;;;;5143574;27;42972;-91
2023/07/19 04:57:15;;;;;;;;;;;30.10;54.30;;;;;;5137282;27;43103;-88
2023/07/19 04:59:41;;;;;;;;;;;30.00;54.20;;;;;;5143352;27;43033;-90
2023/07/19 05:02:07;;;;;;;;;;;30.10;54.30;;;;;;5146990;27;44360;-87
2023/07/19 05:04:33;;;;;;;;;;;31.10;55.00;;;;;;5146434;27;43018;-81
2023/07/19 05:06:59;;;;;;;;;;;30.10;54.40;;;;;;5143736;27;42958;-88
2023/07/19 05:09:24;;;;;;;;;;;30.00;54.30;;;;;;5146450;27;43063;-82
2023/07/19 05:11:50;;;;;;;;;;;30.10;54.90;;;;;;5145990;27;42910;-82
2023/07/19 05:14:15;;;;;;;;;;;30.10;55.00;;;;;;5145423;27;42977;-82
2023/07/19 05:16:41;;;;;;;;;;;30.00;54.90;;;;;;5133267;27;43485;-80
2023/07/19 05:19:06;;;;;;;;;;;30.10;55.00;;;;;;5145913;27;43770;-83
2023/07/19 05:21:32;;;;;;;;;;;30.10;54.50;;;;;;5144213;27;43653;-77
2023/07/19 05:23:57;;;;;;;;;;;30.00;55.10;;;;;;5127068;27;42987;-79
2023/07/19 05:26:24;;;;;;;;;;;30.10;55.10;;;;;;5132203;27;43501;-76
2023/07/19 05:28:49;;;;;;;;;;;30.00;55.00;;;;;;5145523;27;43010;-77
2023/07/19 05:31:15;;;;;;;;;;;30.00;55.10;;;;;;5144140;27;42994;-76
2023/07/19 05:33:41;;;;;;;;;;;30.00;54.60;;;;;;5142625;27;42947;-79
2023/07/19 05:36:06;;;;;;;;;;;30.10;54.70;;;;;;5146859;27;43467;-79
2023/07/19 05:38:32;;;;;;;;;;;30.10;54.70;;;;;;5119826;27;42832;-77
2023/07/19 05:41:04;;;;;;;;;;;30.10;55.30;;;;;;5127323;27;43165;-81
2023/07/19 05:43:29;;;;;;;;;;;30.10;54.80;;;;;;5139260;27;42925;-80
2023/07/19 05:46:05;;;;;;;;;;;30.10;54.70;;;;;;5144847;27;43924;-79
2023/07/19 05:48:31;;;;;;;;;;;30.10;54.80;;;;;;5147620;27;42972;-77
2023/07/19 05:50:56;;;;;;;;;;;30.10;55.30;;;;;;5128291;27;43483;-78
2023/07/19 05:53:22;;;;;;;;;;;30.10;55.30;;;;;;5147845;27;42897;-77
2023/07/19 05:55:47;;;;;;;;;;;30.10;54.80;;;;;;5148050;27;43134;-78
2023/07/19 05:58:12;;;;;;;;;;;30.10;55.40;;;;;;5144947;27;43025;-76
2023/07/19 06:00:40;;;;;;;;;;;30.10;55.30;;;;;;5146682;27;43412;-77
2023/07/19 06:03:05;;;;;;;;;;;30.10;55.40;;;;;;5146595;27;43017;-79
2023/07/19 06:05:32;;;;;;;;;;;30.10;55.40;;;;;;5146673;27;43565;-82
2023/07/19 06:07:57;;;;;;;;;;;30.10;54.90;;;;;;5146605;27;42912;-81
2023/07/19 06:10:23;;;;;;;;;;;29.90;55.30;;;;;;5146051;27;43861;-82
2023/07/19 06:12:49;;;;;;;;;;;30.10;55.00;;;;;;5142349;27;42953;-81
2023/07/19 06:15:15;;;;;;;;;;;30.10;55.50;;;;;;5146136;27;43305;-79
2023/07/19 06:17:41;;;;;;;;;;;30.10;55.50;;;;;;5146109;27;43053;-79
2023/07/19 06:20:07;;;;;;;;;;;30.10;55.00;;;;;;5135441;27;43228;-79
2023/07/19 06:22:32;;;;;;;;;;;30.10;55.40;;;;;;5144651;27;42938;-79
2023/07/19 06:24:58;;;;;;;;;;;30.10;55.00;;;;;;5145197;27;43042;-79
2023/07/19 06:27:23;;;;;;;;;;;30.10;55.50;;;;;;5144831;27;43046;-78
2023/07/19 06:29:50;;;;;;;;;;;30.10;55.00;;;;;;5146370;27;43730;-79
2023/07/19 06:32:17;;;;;;;;;;;30.10;55.10;;;;;;5141244;27;60593;-78
2023/07/19 06:34:43;;;;;;;;;;;30.10;55.10;;;;;;5144464;27;42910;-79
2023/07/19 06:37:08;;;;;;;;;;;30.10;55.50;;;;;;5145687;27;42853;-79
2023/07/19 06:39:34;;;;;;;;;;;30.10;55.10;;;;;;5144656;27;43058;-79
2023/07/19 06:42:00;;;;;;;;;;;30.10;55.00;;;;;;5143863;27;43015;-78
2023/07/19 06:44:25;;;;;;;;;;;30.10;55.60;;;;;;5140581;27;43075;-79
2023/07/19 06:46:51;;;;;;;;;;;30.10;55.10;;;;;;5145226;27;42984;-79
2023/07/19 06:49:16;;;;;;;;;;;30.10;55.10;;;;;;5145812;27;43028;-80
2023/07/19 06:51:42;;;;;;;;;;;30.10;55.60;;;;;;5146235;27;42982;-79
2023/07/19 06:54:07;;;;;;;;;;;30.10;55.10;;;;;;5146663;27;43523;-78
2023/07/19 06:56:33;;;;;;;;;;;30.00;55.60;;;;;;5147017;27;42939;-78
2023/07/19 06:58:58;;;;;;;;;;;30.10;55.10;;;;;;5146843;27;43506;-78
2023/07/19 07:01:24;;;;;;;;;;;30.10;55.60;;;;;;5147330;27;42865;-78
2023/07/19 07:03:51;;;;;;;;;;;30.10;55.80;;;;;;5146889;27;42972;-78
2023/07/19 07:06:16;;;;;;;;;;;30.10;55.60;;;;;;5146938;27;42874;-77
2023/07/19 07:08:42;;;;;;;;;;;30.20;55.70;;;;;;5146639;27;43531;-78
2023/07/19 07:11:07;;;;;;;;;;;30.10;55.70;;;;;;5147200;27;43015;-78
2023/07/19 07:13:33;;;;;;;;;;;30.20;55.70;;;;;;5146704;27;43600;-79
2023/07/19 07:15:59;;;;;;;;;;;30.20;55.80;;;;;;5147307;27;42950;-79
2023/07/19 07:18:24;;;;;;;;;;;30.20;55.80;;;;;;5147347;27;42945;-78
2023/07/19 07:20:51;;;;;;;;;;;30.20;55.20;;;;;;5147034;27;43003;-78
2023/07/19 07:23:17;;;;;;;;;;;30.20;55.20;;;;;;5146387;27;43379;-79
2023/07/19 07:25:42;;;;;;;;;;;30.10;55.20;;;;;;5126955;27;42883;-79
2023/07/19 07:28:08;;;;;;;;;;;30.20;55.20;;;;;;5145776;27;44117;-79
2023/07/19 07:30:34;;;;;;;;;;;30.20;55.30;;;;;;5146678;27;42926;-78
2023/07/19 07:33:00;;;;;;;;;;;30.20;55.20;;;;;;5147031;27;43269;-79
2023/07/19 07:35:25;;;;;;;;;;;30.20;55.20;;;;;;5150208;27;42991;-78
2023/07/19 07:37:51;;;;;;;;;;;30.20;55.80;;;;;;5149836;27;42949;-79
2023/07/19 07:40:16;;;;;;;;;;;30.20;55.30;;;;;;5150365;27;42986;-78
2023/07/19 07:42:42;;;;;;;;;;;30.20;55.30;;;;;;5149985;27;43576;-78
2023/07/19 07:45:08;;;;;;;;;;;30.20;55.80;;;;;;5149952;27;42925;-78
2023/07/19 07:47:33;;;;;;;;;;;30.20;55.30;;;;;;5148714;27;43430;-78
2023/07/19 07:50:02;;;;;;;;;;;30.20;55.30;;;;;;5150010;27;42873;-78
2023/07/19 07:52:28;;;;;;;;;;;30.20;55.80;;;;;;5150337;27;43463;-79
2023/07/19 07:54:53;;;;;;;;;;;30.30;55.90;;;;;;5150325;27;42968;-79
2023/07/19 07:57:19;;;;;;;;;;;30.20;55.80;;;;;;5149407;27;43022;-79
2023/07/19 07:59:45;;;;;;;;;;;30.20;55.80;;;;;;5149777;27;43023;-79
2023/07/19 08:02:11;;;;;;;;;;;30.30;55.50;;;;;;5149333;27;43351;-79
2023/07/19 08:04:37;;;;;;;;;;;30.30;55.40;;;;;;5149955;27;43038;-78
2023/07/19 08:07:02;;;;;;;;;;;30.30;55.40;;;;;;5130702;27;44497;-78
2023/07/19 08:09:28;;;;;;;;;;;30.30;55.90;;;;;;5148850;27;43027;-79
2023/07/19 08:11:53;;;;;;;;;;;30.30;55.40;;;;;;5149521;27;42851;-78
2023/07/19 08:14:22;;;;;;;;;;;30.30;56.00;;;;;;5149448;27;42877;-78
2023/07/19 08:16:49;;;;;;;;;;;30.30;55.90;;;;;;5129993;27;44099;-79
2023/07/19 08:19:14;;;;;;;;;;;30.30;56.40;;;;;;5149287;27;42954;-78
2023/07/19 08:21:40;;;;;;;;;;;30.30;56.00;;;;;;5148705;27;42754;-79
2023/07/19 08:24:05;;;;;;;;;;;30.30;56.00;;;;;;5148898;27;42819;-78
2023/07/19 08:26:31;;;;;;;;;;;30.30;56.00;;;;;;5149085;27;42820;-79
2023/07/19 08:28:56;;;;;;;;;;;30.30;55.50;;;;;;5149271;27;42928;-79
2023/07/19 08:31:23;;;;;;;;;;;30.30;55.50;;;;;;5148585;27;42956;-79
2023/07/19 08:33:49;;;;;;;;;;;30.30;56.00;;;;;;5149013;27;42931;-79
2023/07/19 08:36:14;;;;;;;;;;;30.30;56.50;;;;;;5149463;27;43228;-78
2023/07/19 08:38:40;;;;;;;;;;;30.30;56.00;;;;;;5149171;27;42881;-79
2023/07/19 08:41:06;;;;;;;;;;;30.30;55.50;;;;;;5148812;27;42889;-78
2023/07/19 08:43:35;;;;;;;;;;;30.30;56.10;;;;;;5149467;27;43003;-79
2023/07/19 08:46:00;;;;;;;;;;;30.30;55.50;;;;;;5147990;27;42821;-78
2023/07/19 08:48:26;;;;;;;;;;;30.30;55.50;;;;;;5149429;27;42956;-78
2023/07/19 08:50:55;;;;;;;;;;;30.40;56.10;;;;;;5148295;27;43469;-78
2023/07/19 08:53:21;;;;;;;;;;;30.40;55.60;;;;;;5148482;27;42979;-78
2023/07/19 08:55:47;;;;;;;;;;;30.30;55.60;;;;;;5129909;27;45887;-79
2023/07/19 08:58:13;;;;;;;;;;;30.40;56.10;;;;;;5148785;27;42924;-79
2023/07/19 09:00:38;;;;;;;;;;;30.40;55.60;;;;;;5148457;27;43916;-79
2023/07/19 09:03:04;;;;;;;;;;;30.40;56.20;;;;;;5148515;27;43040;-78
2023/07/19 09:05:30;;;;;;;;;;;30.40;56.20;;;;;;5149046;27;42980;-79
2023/07/19 09:07:59;;;;;;;;;;;30.40;56.20;;;;;;5149009;27;42831;-78
2023/07/19 09:10:24;;;;;;;;;;;30.40;56.10;;;;;;5148588;27;43090;-79
2023/07/19 09:12:50;;;;;;;;;;;30.30;55.60;;;;;;5149004;27;42975;-78
2023/07/19 09:15:16;;;;;;;;;;;30.30;55.60;;;;;;5129394;27;45374;-78
2023/07/19 09:17:42;;;;;;;;;;;30.40;56.20;;;;;;5147892;27;42913;-78
2023/07/19 09:20:08;;;;;;;;;;;30.40;56.10;;;;;;5148591;27;43478;-77
2023/07/19 09:22:35;;;;;;;;;;;30.40;56.10;;;;;;5148686;27;42948;-78
2023/07/19 09:25:04;;;;;;;;;;;30.40;55.70;;;;;;5148004;27;44295;-78
2023/07/19 09:27:30;;;;;;;;;;;30.30;56.10;;;;;;5148107;27;42940;-79
2023/07/19 09:29:56;;;;;;;;;;;30.40;56.20;;;;;;5147936;27;43580;-78
2023/07/19 09:32:23;;;;;;;;;;;30.40;56.30;;;;;;5148083;27;42933;-78
2023/07/19 09:34:52;;;;;;;;;;;30.40;56.20;;;;;;5148035;27;44543;-78
2023/07/19 09:37:20;;;;;;;;;;;30.40;56.20;;;;;;5148509;27;42993;-79
2023/07/19 09:39:45;;;;;;;;;;;30.40;56.30;;;;;;5147664;27;43818;-78
2023/07/19 09:42:13;;;;;;;;;;;30.40;55.80;;;;;;5148033;27;42965;-78
2023/07/19 09:44:39;;;;;;;;;;;30.40;55.80;;;;;;5147246;27;43576;-78
2023/07/19 09:47:08;;;;;;;;;;;30.40;56.20;;;;;;5147701;27;42960;-79
2023/07/19 09:49:34;;;;;;;;;;;30.40;55.80;;;;;;5147981;27;42772;-78
2023/07/19 09:52:01;;;;;;;;;;;30.40;55.80;;;;;;5147103;27;42951;-78
2023/07/19 09:54:27;;;;;;;;;;;30.40;56.30;;;;;;5147884;27;43633;-79
2023/07/19 09:56:52;;;;;;;;;;;30.40;56.30;;;;;;5147003;27;43060;-79
2023/07/19 09:59:20;;;;;;;;;;;30.40;55.80;;;;;;5147636;27;43524;-78
2023/07/19 10:01:45;;;;;;;;;;;30.40;56.30;;;;;;5147342;27;42990;-78
2023/07/19 10:04:24;;;;;;;;;;;30.40;55.80;;;;;;5147383;27;43073;-78
2023/07/19 10:07:10;;;;;;;;;;;30.50;55.90;;;;;;5147397;27;42992;-78
2023/07/19 10:09:43;;;;;;;;;;;30.40;56.30;;;;;;5146931;27;42967;-78
2023/07/19 10:12:14;;;;;;;;;;;30.50;56.30;;;;;;5147702;27;42925;-78
2023/07/19 10:14:40;;;;;;;;;;;30.50;56.30;;;;;;5147483;27;43603;-78
2023/07/19 10:17:06;;;;;;;;;;;30.50;56.50;;;;;;5147470;27;42889;-78
2023/07/19 10:19:31;;;;;;;;;;;30.40;56.30;;;;;;5147378;27;42862;-78
2023/07/19 10:22:03;;;;;;;;;;;30.40;55.90;;;;;;5128907;27;42933;-78
2023/07/19 10:24:29;;;;;;;;;;;30.50;56.40;;;;;;5146708;27;43534;-79
2023/07/19 10:26:55;;;;;;;;;;;30.50;56.40;;;;;;5147074;27;43006;-78
2023/07/19 10:29:22;;;;;;;;;;;30.50;56.50;;;;;;5147550;27;42951;-78
2023/07/19 10:31:48;;;;;;;;;;;30.50;56.40;;;;;;5146861;27;42752;-79
2023/07/19 10:34:13;;;;;;;;;;;30.50;56.50;;;;;;5144108;27;43470;-77
2023/07/19 10:36:46;;;;;;;;;;;30.50;56.00;;;;;;5137386;27;44245;-76
2023/07/19 10:39:11;;;;;;;;;;;30.50;56.50;;;;;;5146941;27;43517;-78
2023/07/19 10:41:37;;;;;;;;;;;30.50;56.00;;;;;;5145815;27;43008;-76
2023/07/19 10:44:03;;;;;;;;;;;30.50;56.50;;;;;;5145353;27;42971;-76
2023/07/19 10:46:28;;;;;;;;;;;30.50;56.50;;;;;;5145698;27;43262;-78
2023/07/19 10:48:54;;;;;;;;;;;30.50;56.00;;;;;;5144828;27;44210;-79
2023/07/19 10:51:20;;;;;;;;;;;30.40;56.00;;;;;;5145037;27;43308;-76
2023/07/19 10:53:47;;;;;;;;;;;30.50;56.00;;;;;;5145172;27;43133;-77
2023/07/19 10:56:15;;;;;;;;;;;30.50;56.00;;;;;;5146322;27;43015;-78
2023/07/19 10:58:42;;;;;;;;;;;30.50;56.50;;;;;;5145318;27;42946;-76
2023/07/19 11:01:08;;;;;;;;;;;30.50;56.50;;;;;;5144521;27;42904;-78
2023/07/19 11:03:33;;;;;;;;;;;30.50;56.10;;;;;;5129141;27;43034;-76
2023/07/19 11:05:59;;;;;;;;;;;30.50;56.60;;;;;;5144710;27;42876;-76
2023/07/19 11:08:26;;;;;;;;;;;30.50;56.50;;;;;;5136410;27;43518;-77
2023/07/19 11:10:52;;;;;;;;;;;30.50;56.50;;;;;;5148975;27;43039;-78
2023/07/19 11:13:18;;;;;;;;;;;30.50;56.10;;;;;;5147107;27;43087;-76
2023/07/19 11:15:51;;;;;;;;;;;30.50;56.10;;;;;;5143795;27;42903;-78
2023/07/19 11:18:27;;;;;;;;;;;30.60;56.60;;;;;;5146535;27;43174;-78
2023/07/19 11:20:53;;;;;;;;;;;30.50;56.50;;;;;;5148362;27;43019;-78
2023/07/19 11:23:19;;;;;;;;;;;30.50;56.10;;;;;;5147205;27;43094;-78
2023/07/19 11:25:46;;;;;;;;;;;30.50;56.60;;;;;;5134510;27;42977;-75
2023/07/19 11:28:12;;;;;;;;;;;30.50;56.10;;;;;;5124540;27;42872;-77
2023/07/19 11:30:39;;;;;;;;;;;30.50;56.70;;;;;;5147063;27;43022;-78
2023/07/19 11:33:06;;;;;;;;;;;30.50;56.60;;;;;;5144821;27;43555;-77
2023/07/19 11:35:32;;;;;;;;;;;30.50;56.10;;;;;;5148075;27;43066;-78
2023/07/19 11:37:57;;;;;;;;;;;30.50;56.10;;;;;;5147965;27;43613;-78
2023/07/19 11:40:23;;;;;;;;;;;30.60;56.20;;;;;;5147934;27;43018;-80
2023/07/19 11:42:52;;;;;;;;;;;30.60;56.70;;;;;;5148272;27;42966;-79
2023/07/19 11:45:18;;;;;;;;;;;30.60;56.70;;;;;;5147311;27;43052;-76
2023/07/19 11:47:45;;;;;;;;;;;30.60;56.70;;;;;;5147704;27;43738;-78
2023/07/19 11:50:11;;;;;;;;;;;30.60;56.30;;;;;;5147155;27;42928;-79
2023/07/19 11:52:47;;;;;;;;;;;30.60;56.70;;;;;;5147745;27;43511;-77
2023/07/19 11:55:13;;;;;;;;;;;30.60;56.20;;;;;;5146593;27;43005;-79
2023/07/19 11:57:40;;;;;;;;;;;30.60;56.20;;;;;;5129957;27;45901;-76
2023/07/19 12:00:06;;;;;;;;;;;30.60;56.70;;;;;;5144761;27;43094;-79
2023/07/19 12:02:32;;;;;;;;;;;30.50;56.20;;;;;;5147506;27;43703;-80
2023/07/19 12:04:57;;;;;;;;;;;30.60;56.70;;;;;;5147762;27;42803;-80
2023/07/19 12:07:23;;;;;;;;;;;30.60;56.70;;;;;;5146831;27;42902;-78
2023/07/19 12:09:48;;;;;;;;;;;30.60;56.80;;;;;;5148404;27;43070;-77
2023/07/19 12:12:14;;;;;;;;;;;30.60;56.80;;;;;;5121776;27;44414;-80
2023/07/19 12:14:40;;;;;;;;;;;30.60;56.80;;;;;;5147915;27;43069;-80
2023/07/19 12:17:06;;;;;;;;;;;30.60;56.80;;;;;;5147160;27;43589;-80
2023/07/19 12:19:33;;;;;;;;;;;30.60;56.30;;;;;;5146331;27;42949;-80
2023/07/19 12:21:59;;;;;;;;;;;30.60;56.30;;;;;;5146242;27;43659;-80
2023/07/19 12:24:24;;;;;;;;;;;30.60;56.30;;;;;;5145424;27;42938;-81
2023/07/19 12:26:50;;;;;;;;;;;30.60;56.30;;;;;;5146098;27;42959;-80
2023/07/19 12:29:15;;;;;;;;;;;30.60;56.30;;;;;;5145889;27;43165;-79
2023/07/19 12:31:41;;;;;;;;;;;30.60;56.80;;;;;;5145164;27;43757;-78
2023/07/19 12:34:06;;;;;;;;;;;30.60;56.30;;;;;;5134168;27;43914;-78
2023/07/19 12:36:32;;;;;;;;;;;30.60;56.80;;;;;;5140855;27;43426;-79
2023/07/19 12:38:57;;;;;;;;;;;30.60;56.30;;;;;;5144472;27;43000;-79
2023/07/19 12:41:23;;;;;;;;;;;30.60;56.30;;;;;;5146163;27;43015;-79
2023/07/19 12:43:49;;;;;;;;;;;30.60;56.80;;;;;;5146959;27;42967;-78
2023/07/19 12:46:14;;;;;;;;;;;30.60;56.80;;;;;;5148312;27;43025;-80
2023/07/19 12:48:40;;;;;;;;;;;30.60;56.80;;;;;;5148684;27;42976;-79
2023/07/19 12:51:06;;;;;;;;;;;30.60;56.30;;;;;;5148251;27;43321;-79
2023/07/19 12:53:33;;;;;;;;;;;30.70;56.30;;;;;;5129960;27;43113;-78
2023/07/19 12:55:58;;;;;;;;;;;30.70;56.30;;;;;;5148626;27;42884;-80
2023/07/19 12:58:24;;;;;;;;;;;30.60;56.20;;;;;;5148903;27;42939;-79
2023/07/19 13:00:50;;;;;;;;;;;30.70;56.80;;;;;;5148909;27;43623;-77
2023/07/19 13:03:15;;;;;;;;;;;30.60;56.90;;;;;;5149024;27;43008;-77
2023/07/19 13:05:41;;;;;;;;;;;30.70;56.90;;;;;;5148737;27;42993;-79
2023/07/19 13:08:06;;;;;;;;;;;30.70;56.30;;;;;;5149077;27;42849;-78
2023/07/19 13:10:32;;;;;;;;;;;30.60;56.80;;;;;;5148503;27;43505;-78
2023/07/19 13:12:57;;;;;;;;;;;30.70;56.80;;;;;;5148371;27;42995;-78
2023/07/19 13:15:23;;;;;;;;;;;30.70;56.30;;;;;;5148518;27;43575;-78
2023/07/19 13:17:48;;;;;;;;;;;30.70;56.80;;;;;;5148828;27;42953;-78
2023/07/19 13:20:14;;;;;;;;;;;30.60;56.20;;;;;;5148708;27;43809;-77
2023/07/19 13:22:40;;;;;;;;;;;30.70;56.70;;;;;;5149024;27;42777;-77
2023/07/19 13:25:06;;;;;;;;;;;30.70;56.80;;;;;;5147618;27;43717;-77
2023/07/19 13:27:32;;;;;;;;;;;30.70;56.80;;;;;;5147946;27;42991;-78
2023/07/19 13:29:57;;;;;;;;;;;30.60;56.20;;;;;;5148514;27;42924;-79
2023/07/19 13:32:23;;;;;;;;;;;30.70;56.80;;;;;;5147578;27;42872;-78
2023/07/19 13:34:48;;;;;;;;;;;30.70;56.30;;;;;;5147974;27;43652;-79
2023/07/19 13:37:14;;;;;;;;;;;30.70;56.30;;;;;;5148325;27;42860;-77
2023/07/19 13:39:39;;;;;;;;;;;30.70;56.30;;;;;;5148602;27;42980;-77
2023/07/19 13:42:05;;;;;;;;;;;30.70;56.80;;;;;;5148408;27;43120;-77
2023/07/19 13:44:31;;;;;;;;;;;30.70;56.70;;;;;;5148215;27;42903;-77
2023/07/19 13:46:58;;;;;;;;;;;30.70;56.30;;;;;;5147866;27;42936;-77
2023/07/19 13:49:24;;;;;;;;;;;30.70;56.30;;;;;;5148268;27;43530;-77
2023/07/19 13:51:49;;;;;;;;;;;30.70;56.70;;;;;;5147852;27;42938;-78
2023/07/19 13:54:15;;;;;;;;;;;30.70;56.30;;;;;;5147762;27;42852;-77
2023/07/19 13:56:40;;;;;;;;;;;30.70;56.70;;;;;;5147653;27;42974;-76
2023/07/19 13:59:06;;;;;;;;;;;30.70;56.80;;;;;;5147637;27;42830;-77
2023/07/19 14:01:31;;;;;;;;;;;30.80;56.30;;;;;;5148210;27;42744;-78
2023/07/19 14:03:57;;;;;;;;;;;30.70;56.80;;;;;;5148033;27;42910;-78
2023/07/19 14:06:22;;;;;;;;;;;30.70;56.20;;;;;;5148283;27;43165;-77
2023/07/19 14:08:48;;;;;;;;;;;30.80;56.30;;;;;;5147732;27;42892;-79